sensor_id;sensor_type;location;lat;lon;timestamp;temperature;humidity
20125;DHT22;10223;50.862;4.360;2023-08-12T00:01:45;21.70;99.90
20125;DHT22;10223;50.862;4.360;2023-08-12T00:04:11;21.70;99.90
20125;DHT22;10223;50.862;4.360;2023-08-12T00:06:40;21.60;99.90
20125;DHT22;10223;50.862;4.360;2023-08-12T00:09:07;21.50;99.90
20125;DHT22;10223;50.862;4.360;2023-08-12T00:11:34;21.40;99.90
20125;DHT22;10223;50.862;4.360;2023-08-12T00:14:01;21.40;99.90
20125;DHT22;10223;50.862;4.360;2023-08-12T00:16:28;21.40;99.90
20125;DHT22;10223;50.862;4.360;2023-08-12T00:18:56;21.40;99.90
20125;DHT22;10223;50.862;4.360;2023-08-12T00:21:24;21.50;99.90
20125;DHT22;10223;50.862;4.360;2023-08-12T00:23:51;21.40;99.90
20125;DHT22;10223;50.862;4.360;2023-08-12T00:26:18;21.30;99.90
20125;DHT22;10223;50.862;4.360;2023-08-12T00:28:48;21.20;99.90
20125;DHT22;10223;50.862;4.360;2023-08-12T00:31:15;21.40;99.90
20125;DHT22;10223;50.862;4.360;2023-08-12T00:33:42;21.40;99.90
20125;DHT22;10223;50.862;4.360;2023-08-12T00:36:10;21.20;99.90
20125;DHT22;10223;50.862;4.360;2023-08-12T00:38:37;21.20;99.90
20125;DHT22;10223;50.862;4.360;2023-08-12T00:41:04;21.20;99.90
20125;DHT22;10223;50.862;4.360;2023-08-12T00:43:31;21.10;99.90
20125;DHT22;10223;50.862;4.360;2023-08-12T00:45:58;21.20;99.90
20125;DHT22;10223;50.862;4.360;2023-08-12T00:48:25;21.20;99.90
20125;DHT22;10223;50.862;4.360;2023-08-12T00:50:52;21.10;99.90
20125;DHT22;10223;50.862;4.360;2023-08-12T00:53:21;21.20;99.90
20125;DHT22;10223;50.862;4.360;2023-08-12T00:55:48;21.20;99.90
20125;DHT22;10223;50.862;4.360;2023-08-12T00:58:15;21.30;99.90
20125;DHT22;10223;50.862;4.360;2023-08-12T01:00:43;21.30;99.90
20125;DHT22;10223;50.862;4.360;2023-08-12T01:03:11;21.30;99.90
20125;DHT22;10223;50.862;4.360;2023-08-12T01:05:38;21.20;99.90
20125;DHT22;10223;50.862;4.360;2023-08-12T01:08:05;21.10;99.90
20125;DHT22;10223;50.862;4.360;2023-08-12T01:10:36;20.90;99.90
20125;DHT22;10223;50.862;4.360;2023-08-12T01:13:14;20.70;99.90
20125;DHT22;10223;50.862;4.360;2023-08-12T01:15:44;20.70;99.90
20125;DHT22;10223;50.862;4.360;2023-08-12T01:18:12;20.70;99.90
20125;DHT22;10223;50.862;4.360;2023-08-12T01:20:40;20.60;99.90
20125;DHT22;10223;50.862;4.360;2023-08-12T01:23:12;20.60;99.90
20125;DHT22;10223;50.862;4.360;2023-08-12T01:25:40;20.50;99.90
20125;DHT22;10223;50.862;4.360;2023-08-12T01:28:07;20.60;99.90
20125;DHT22;10223;50.862;4.360;2023-08-12T01:30:39;20.70;99.90
20125;DHT22;10223;50.862;4.360;2023-08-12T01:33:12;20.60;99.90
20125;DHT22;10223;50.862;4.360;2023-08-12T01:35:48;20.70;99.90
20125;DHT22;10223;50.862;4.360;2023-08-12T01:38:19;20.70;99.90
20125;DHT22;10223;50.862;4.360;2023-08-12T01:40:48;20.70;99.90
20125;DHT22;10223;50.862;4.360;2023-08-12T01:43:16;20.80;99.90
20125;DHT22;10223;50.862;4.360;2023-08-12T01:45:44;20.80;99.90
20125;DHT22;10223;50.862;4.360;2023-08-12T01:48:11;20.80;99.90
20125;DHT22;10223;50.862;4.360;2023-08-12T01:50:37;20.90;99.90
20125;DHT22;10223;50.862;4.360;2023-08-12T01:53:04;20.80;99.90
20125;DHT22;10223;50.862;4.360;2023-08-12T01:55:33;20.90;99.90
20125;DHT22;10223;50.862;4.360;2023-08-12T01:57:59;21.00;99.90
20125;DHT22;10223;50.862;4.360;2023-08-12T02:00:26;21.00;99.90
20125;DHT22;10223;50.862;4.360;2023-08-12T02:02:53;21.00;99.90
20125;DHT22;10223;50.862;4.360;2023-08-12T02:05:20;21.10;99.90
20125;DHT22;10223;50.862;4.360;2023-08-12T02:07:48;21.10;99.90
20125;DHT22;10223;50.862;4.360;2023-08-12T02:10:15;21.10;99.90
20125;DHT22;10223;50.862;4.360;2023-08-12T02:12:43;21.00;99.90
20125;DHT22;10223;50.862;4.360;2023-08-12T02:15:10;20.90;99.90
20125;DHT22;10223;50.862;4.360;2023-08-12T02:17:37;20.80;99.90
20125;DHT22;10223;50.862;4.360;2023-08-12T02:20:05;20.90;99.90
20125;DHT22;10223;50.862;4.360;2023-08-12T02:22:32;20.80;99.90
20125;DHT22;10223;50.862;4.360;2023-08-12T02:24:59;20.80;99.90
20125;DHT22;10223;50.862;4.360;2023-08-12T02:27:26;20.90;99.90
20125;DHT22;10223;50.862;4.360;2023-08-12T02:29:54;20.80;99.90
20125;DHT22;10223;50.862;4.360;2023-08-12T02:32:21;20.80;99.90
20125;DHT22;10223;50.862;4.360;2023-08-12T02:34:48;20.70;99.90
20125;DHT22;10223;50.862;4.360;2023-08-12T02:37:15;20.80;99.90
20125;DHT22;10223;50.862;4.360;2023-08-12T02:39:42;20.70;99.90
20125;DHT22;10223;50.862;4.360;2023-08-12T02:42:09;20.80;99.90
20125;DHT22;10223;50.862;4.360;2023-08-12T02:44:36;20.60;99.90
20125;DHT22;10223;50.862;4.360;2023-08-12T02:47:04;20.60;99.90
20125;DHT22;10223;50.862;4.360;2023-08-12T02:49:31;20.60;99.90
20125;DHT22;10223;50.862;4.360;2023-08-12T02:51:58;20.60;99.90
20125;DHT22;10223;50.862;4.360;2023-08-12T02:54:25;20.50;99.90
20125;DHT22;10223;50.862;4.360;2023-08-12T02:56:52;20.40;99.90
20125;DHT22;10223;50.862;4.360;2023-08-12T02:59:19;20.40;99.90
20125;DHT22;10223;50.862;4.360;2023-08-12T03:01:46;20.40;99.90
20125;DHT22;10223;50.862;4.360;2023-08-12T03:04:14;20.50;99.90
20125;DHT22;10223;50.862;4.360;2023-08-12T03:06:41;20.50;99.90
20125;DHT22;10223;50.862;4.360;2023-08-12T03:09:08;20.50;99.90
20125;DHT22;10223;50.862;4.360;2023-08-12T03:11:35;20.70;99.90
20125;DHT22;10223;50.862;4.360;2023-08-12T03:14:02;20.70;99.90
20125;DHT22;10223;50.862;4.360;2023-08-12T03:16:28;20.80;99.90
20125;DHT22;10223;50.862;4.360;2023-08-12T03:18:56;20.70;99.90
20125;DHT22;10223;50.862;4.360;2023-08-12T03:21:24;20.80;99.90
20125;DHT22;10223;50.862;4.360;2023-08-12T03:23:51;20.70;99.90
20125;DHT22;10223;50.862;4.360;2023-08-12T03:26:18;20.80;99.90
20125;DHT22;10223;50.862;4.360;2023-08-12T03:28:45;20.60;99.90
20125;DHT22;10223;50.862;4.360;2023-08-12T03:31:11;20.50;99.90
20125;DHT22;10223;50.862;4.360;2023-08-12T03:33:44;20.50;99.90
20125;DHT22;10223;50.862;4.360;2023-08-12T03:36:11;20.40;99.90
20125;DHT22;10223;50.862;4.360;2023-08-12T03:38:39;20.30;99.90
20125;DHT22;10223;50.862;4.360;2023-08-12T03:41:07;20.10;99.90
20125;DHT22;10223;50.862;4.360;2023-08-12T03:43:34;20.00;99.90
20125;DHT22;10223;50.862;4.360;2023-08-12T03:46:02;20.00;99.90
20125;DHT22;10223;50.862;4.360;2023-08-12T03:48:28;20.00;99.90
20125;DHT22;10223;50.862;4.360;2023-08-12T03:50:55;19.90;99.90
20125;DHT22;10223;50.862;4.360;2023-08-12T03:53:22;19.90;99.90
20125;DHT22;10223;50.862;4.360;2023-08-12T03:55:51;19.90;99.90
20125;DHT22;10223;50.862;4.360;2023-08-12T03:58:18;19.90;99.90
20125;DHT22;10223;50.862;4.360;2023-08-12T04:00:45;19.80;99.90
20125;DHT22;10223;50.862;4.360;2023-08-12T04:03:12;19.80;99.90
20125;DHT22;10223;50.862;4.360;2023-08-12T04:05:47;19.80;99.90
20125;DHT22;10223;50.862;4.360;2023-08-12T04:08:14;19.70;99.90
20125;DHT22;10223;50.862;4.360;2023-08-12T04:10:44;19.80;99.90
20125;DHT22;10223;50.862;4.360;2023-08-12T04:13:13;19.80;99.90
20125;DHT22;10223;50.862;4.360;2023-08-12T04:15:40;19.70;99.90
20125;DHT22;10223;50.862;4.360;2023-08-12T04:18:07;19.60;99.90
20125;DHT22;10223;50.862;4.360;2023-08-12T04:20:34;19.60;99.90
20125;DHT22;10223;50.862;4.360;2023-08-12T04:23:01;19.50;99.90
20125;DHT22;10223;50.862;4.360;2023-08-12T04:25:28;19.60;99.90
20125;DHT22;10223;50.862;4.360;2023-08-12T04:27:55;19.60;99.90
20125;DHT22;10223;50.862;4.360;2023-08-12T04:30:23;19.60;99.90
20125;DHT22;10223;50.862;4.360;2023-08-12T04:32:50;19.70;99.90
20125;DHT22;10223;50.862;4.360;2023-08-12T04:35:17;19.60;99.90
20125;DHT22;10223;50.862;4.360;2023-08-12T04:37:44;19.60;99.90
20125;DHT22;10223;50.862;4.360;2023-08-12T04:40:11;19.70;99.90
20125;DHT22;10223;50.862;4.360;2023-08-12T04:42:38;19.60;99.90
20125;DHT22;10223;50.862;4.360;2023-08-12T04:45:06;19.70;99.90
20125;DHT22;10223;50.862;4.360;2023-08-12T04:47:34;19.70;99.90
20125;DHT22;10223;50.862;4.360;2023-08-12T04:50:03;19.70;99.90
20125;DHT22;10223;50.862;4.360;2023-08-12T04:52:29;19.70;99.90
20125;DHT22;10223;50.862;4.360;2023-08-12T04:54:56;19.70;99.90
20125;DHT22;10223;50.862;4.360;2023-08-12T04:57:23;19.70;99.90
20125;DHT22;10223;50.862;4.360;2023-08-12T04:59:50;19.70;99.90
20125;DHT22;10223;50.862;4.360;2023-08-12T05:02:17;19.60;99.90
20125;DHT22;10223;50.862;4.360;2023-08-12T05:04:48;19.60;99.90
20125;DHT22;10223;50.862;4.360;2023-08-12T05:07:15;19.80;99.90
20125;DHT22;10223;50.862;4.360;2023-08-12T05:09:42;19.60;99.90
20125;DHT22;10223;50.862;4.360;2023-08-12T05:12:09;19.60;99.90
20125;DHT22;10223;50.862;4.360;2023-08-12T05:14:36;19.60;99.90
20125;DHT22;10223;50.862;4.360;2023-08-12T05:17:03;19.60;99.90
20125;DHT22;10223;50.862;4.360;2023-08-12T05:19:30;19.60;99.90
20125;DHT22;10223;50.862;4.360;2023-08-12T05:21:59;19.70;99.90
20125;DHT22;10223;50.862;4.360;2023-08-12T05:24:25;19.60;99.90
20125;DHT22;10223;50.862;4.360;2023-08-12T05:26:52;19.70;99.90
20125;DHT22;10223;50.862;4.360;2023-08-12T05:29:19;19.60;99.90
20125;DHT22;10223;50.862;4.360;2023-08-12T05:31:46;19.70;99.90
20125;DHT22;10223;50.862;4.360;2023-08-12T05:34:13;19.60;99.90
20125;DHT22;10223;50.862;4.360;2023-08-12T05:36:40;19.60;99.90
20125;DHT22;10223;50.862;4.360;2023-08-12T05:39:08;19.60;99.90
20125;DHT22;10223;50.862;4.360;2023-08-12T05:41:35;19.60;99.90
20125;DHT22;10223;50.862;4.360;2023-08-12T05:44:02;19.70;99.90
20125;DHT22;10223;50.862;4.360;2023-08-12T05:46:29;19.70;99.90
20125;DHT22;10223;50.862;4.360;2023-08-12T05:48:56;19.60;99.90
20125;DHT22;10223;50.862;4.360;2023-08-12T05:51:23;19.70;99.90
20125;DHT22;10223;50.862;4.360;2023-08-12T05:53:51;19.70;99.90
20125;DHT22;10223;50.862;4.360;2023-08-12T05:56:19;19.80;99.90
20125;DHT22;10223;50.862;4.360;2023-08-12T05:58:46;19.70;99.90
20125;DHT22;10223;50.862;4.360;2023-08-12T06:01:13;19.80;99.90
20125;DHT22;10223;50.862;4.360;2023-08-12T06:03:40;19.70;99.90
20125;DHT22;10223;50.862;4.360;2023-08-12T06:06:07;19.70;99.90
20125;DHT22;10223;50.862;4.360;2023-08-12T06:08:34;19.80;99.90
20125;DHT22;10223;50.862;4.360;2023-08-12T06:11:01;19.80;99.90
20125;DHT22;10223;50.862;4.360;2023-08-12T06:13:29;19.70;99.90
20125;DHT22;10223;50.862;4.360;2023-08-12T06:15:56;19.80;99.90
20125;DHT22;10223;50.862;4.360;2023-08-12T06:18:23;19.70;99.90
20125;DHT22;10223;50.862;4.360;2023-08-12T06:20:50;19.70;99.90
20125;DHT22;10223;50.862;4.360;2023-08-12T06:23:17;19.80;99.90
20125;DHT22;10223;50.862;4.360;2023-08-12T06:25:44;19.70;99.90
20125;DHT22;10223;50.862;4.360;2023-08-12T06:28:11;19.70;99.90
20125;DHT22;10223;50.862;4.360;2023-08-12T06:30:39;19.80;99.90
20125;DHT22;10223;50.862;4.360;2023-08-12T06:33:06;19.70;99.90
20125;DHT22;10223;50.862;4.360;2023-08-12T06:35:33;19.80;99.90
20125;DHT22;10223;50.862;4.360;2023-08-12T06:37:59;19.70;99.90
20125;DHT22;10223;50.862;4.360;2023-08-12T06:40:27;19.70;99.90
20125;DHT22;10223;50.862;4.360;2023-08-12T06:42:56;19.70;99.90
20125;DHT22;10223;50.862;4.360;2023-08-12T06:45:23;19.80;99.90
20125;DHT22;10223;50.862;4.360;2023-08-12T06:47:51;19.80;99.90
20125;DHT22;10223;50.862;4.360;2023-08-12T06:50:18;19.90;99.90
20125;DHT22;10223;50.862;4.360;2023-08-12T06:52:45;19.90;99.90
20125;DHT22;10223;50.862;4.360;2023-08-12T06:55:11;19.80;99.90
20125;DHT22;10223;50.862;4.360;2023-08-12T06:57:38;19.70;99.90
20125;DHT22;10223;50.862;4.360;2023-08-12T07:00:06;19.70;99.90
20125;DHT22;10223;50.862;4.360;2023-08-12T07:02:33;19.80;99.90
20125;DHT22;10223;50.862;4.360;2023-08-12T07:05:02;19.80;99.90
20125;DHT22;10223;50.862;4.360;2023-08-12T07:07:29;19.70;99.90
20125;DHT22;10223;50.862;4.360;2023-08-12T07:09:56;19.80;99.90
20125;DHT22;10223;50.862;4.360;2023-08-12T07:12:23;19.70;99.90
20125;DHT22;10223;50.862;4.360;2023-08-12T07:14:50;19.50;99.90
20125;DHT22;10223;50.862;4.360;2023-08-12T07:17:17;19.30;99.90
20125;DHT22;10223;50.862;4.360;2023-08-12T07:19:44;19.30;99.90
20125;DHT22;10223;50.862;4.360;2023-08-12T07:22:12;19.10;99.90
20125;DHT22;10223;50.862;4.360;2023-08-12T07:24:39;18.90;99.90
20125;DHT22;10223;50.862;4.360;2023-08-12T07:27:06;18.80;99.90
20125;DHT22;10223;50.862;4.360;2023-08-12T07:29:33;18.70;99.90
20125;DHT22;10223;50.862;4.360;2023-08-12T07:32:00;18.70;99.90
20125;DHT22;10223;50.862;4.360;2023-08-12T07:34:26;18.70;99.90
20125;DHT22;10223;50.862;4.360;2023-08-12T07:36:53;18.80;99.90
20125;DHT22;10223;50.862;4.360;2023-08-12T07:39:22;18.80;99.90
20125;DHT22;10223;50.862;4.360;2023-08-12T07:41:48;19.00;99.90
20125;DHT22;10223;50.862;4.360;2023-08-12T07:44:15;19.00;99.90
20125;DHT22;10223;50.862;4.360;2023-08-12T07:46:42;19.00;99.90
20125;DHT22;10223;50.862;4.360;2023-08-12T07:49:09;19.00;99.90
20125;DHT22;10223;50.862;4.360;2023-08-12T07:51:36;19.20;99.90
20125;DHT22;10223;50.862;4.360;2023-08-12T07:54:04;19.30;99.90
20125;DHT22;10223;50.862;4.360;2023-08-12T07:56:32;19.30;99.90
20125;DHT22;10223;50.862;4.360;2023-08-12T07:58:59;19.40;99.90
20125;DHT22;10223;50.862;4.360;2023-08-12T08:01:26;19.40;99.90
20125;DHT22;10223;50.862;4.360;2023-08-12T08:03:53;19.40;99.90
20125;DHT22;10223;50.862;4.360;2023-08-12T08:06:20;19.50;99.90
20125;DHT22;10223;50.862;4.360;2023-08-12T08:08:46;19.40;99.90
20125;DHT22;10223;50.862;4.360;2023-08-12T08:11:13;19.50;99.90
20125;DHT22;10223;50.862;4.360;2023-08-12T08:13:42;19.50;99.90
20125;DHT22;10223;50.862;4.360;2023-08-12T08:16:08;19.40;99.90
20125;DHT22;10223;50.862;4.360;2023-08-12T08:18:35;19.40;99.90
20125;DHT22;10223;50.862;4.360;2023-08-12T08:21:02;19.50;99.90
20125;DHT22;10223;50.862;4.360;2023-08-12T08:23:29;19.60;99.90
20125;DHT22;10223;50.862;4.360;2023-08-12T08:25:56;19.70;99.90
20125;DHT22;10223;50.862;4.360;2023-08-12T08:28:23;19.70;99.90
20125;DHT22;10223;50.862;4.360;2023-08-12T08:30:51;19.80;99.90
20125;DHT22;10223;50.862;4.360;2023-08-12T08:33:18;19.90;99.90
20125;DHT22;10223;50.862;4.360;2023-08-12T08:35:45;19.70;99.90
20125;DHT22;10223;50.862;4.360;2023-08-12T08:38:11;19.90;99.90
20125;DHT22;10223;50.862;4.360;2023-08-12T08:40:38;20.00;99.90
20125;DHT22;10223;50.862;4.360;2023-08-12T08:43:07;19.80;99.90
20125;DHT22;10223;50.862;4.360;2023-08-12T08:45:34;19.80;99.90
20125;DHT22;10223;50.862;4.360;2023-08-12T08:48:03;19.80;99.90
20125;DHT22;10223;50.862;4.360;2023-08-12T08:50:31;19.70;99.90
20125;DHT22;10223;50.862;4.360;2023-08-12T08:53:00;19.60;99.90
20125;DHT22;10223;50.862;4.360;2023-08-12T08:55:28;19.70;99.90
20125;DHT22;10223;50.862;4.360;2023-08-12T08:57:56;19.50;99.90
20125;DHT22;10223;50.862;4.360;2023-08-12T09:00:24;19.50;99.90
20125;DHT22;10223;50.862;4.360;2023-08-12T09:02:53;19.60;99.90
20125;DHT22;10223;50.862;4.360;2023-08-12T09:05:21;19.80;99.90
20125;DHT22;10223;50.862;4.360;2023-08-12T09:07:50;19.90;99.90
20125;DHT22;10223;50.862;4.360;2023-08-12T09:10:20;20.00;99.90
20125;DHT22;10223;50.862;4.360;2023-08-12T09:12:47;20.10;99.90
20125;DHT22;10223;50.862;4.360;2023-08-12T09:15:16;20.20;99.90
20125;DHT22;10223;50.862;4.360;2023-08-12T09:17:43;20.30;99.90
20125;DHT22;10223;50.862;4.360;2023-08-12T09:20:10;20.30;99.90
20125;DHT22;10223;50.862;4.360;2023-08-12T09:22:40;20.60;99.90
20125;DHT22;10223;50.862;4.360;2023-08-12T09:25:08;20.60;99.90
20125;DHT22;10223;50.862;4.360;2023-08-12T09:27:36;20.90;99.90
20125;DHT22;10223;50.862;4.360;2023-08-12T09:30:04;21.10;99.90
20125;DHT22;10223;50.862;4.360;2023-08-12T09:32:31;20.90;99.90
20125;DHT22;10223;50.862;4.360;2023-08-12T09:35:01;20.70;99.90
20125;DHT22;10223;50.862;4.360;2023-08-12T09:37:31;20.50;99.90
20125;DHT22;10223;50.862;4.360;2023-08-12T09:39:59;20.50;99.90
20125;DHT22;10223;50.862;4.360;2023-08-12T09:42:30;20.20;99.90
20125;DHT22;10223;50.862;4.360;2023-08-12T09:44:57;20.20;99.90
20125;DHT22;10223;50.862;4.360;2023-08-12T09:47:25;20.20;99.90
20125;DHT22;10223;50.862;4.360;2023-08-12T09:49:52;20.30;99.90
20125;DHT22;10223;50.862;4.360;2023-08-12T09:52:19;20.40;99.90
20125;DHT22;10223;50.862;4.360;2023-08-12T09:54:47;20.50;99.90
20125;DHT22;10223;50.862;4.360;2023-08-12T09:57:17;20.60;99.90
20125;DHT22;10223;50.862;4.360;2023-08-12T09:59:45;20.80;99.90
20125;DHT22;10223;50.862;4.360;2023-08-12T10:02:15;20.80;99.90
20125;DHT22;10223;50.862;4.360;2023-08-12T10:04:45;20.80;99.90
20125;DHT22;10223;50.862;4.360;2023-08-12T10:07:12;20.80;99.90
20125;DHT22;10223;50.862;4.360;2023-08-12T10:09:40;20.80;99.90
20125;DHT22;10223;50.862;4.360;2023-08-12T10:12:07;20.60;99.90
20125;DHT22;10223;50.862;4.360;2023-08-12T10:14:36;20.80;99.90
20125;DHT22;10223;50.862;4.360;2023-08-12T10:17:03;21.00;99.90
20125;DHT22;10223;50.862;4.360;2023-08-12T10:19:31;21.30;99.90
20125;DHT22;10223;50.862;4.360;2023-08-12T10:21:59;21.30;99.90
20125;DHT22;10223;50.862;4.360;2023-08-12T10:24:27;21.60;99.90
20125;DHT22;10223;50.862;4.360;2023-08-12T10:26:54;21.60;99.90
20125;DHT22;10223;50.862;4.360;2023-08-12T10:29:23;21.60;99.90
20125;DHT22;10223;50.862;4.360;2023-08-12T10:31:52;21.70;99.90
20125;DHT22;10223;50.862;4.360;2023-08-12T10:34:20;22.10;99.90
20125;DHT22;10223;50.862;4.360;2023-08-12T10:36:47;22.50;99.90
20125;DHT22;10223;50.862;4.360;2023-08-12T10:39:14;23.00;99.90
20125;DHT22;10223;50.862;4.360;2023-08-12T10:41:50;23.40;99.90
20125;DHT22;10223;50.862;4.360;2023-08-12T10:44:20;23.20;99.90
20125;DHT22;10223;50.862;4.360;2023-08-12T10:46:52;23.50;99.90
20125;DHT22;10223;50.862;4.360;2023-08-12T10:49:20;23.70;99.90
20125;DHT22;10223;50.862;4.360;2023-08-12T10:51:48;23.80;99.90
20125;DHT22;10223;50.862;4.360;2023-08-12T10:54:17;24.00;99.90
20125;DHT22;10223;50.862;4.360;2023-08-12T10:57:07;24.10;99.90
20125;DHT22;10223;50.862;4.360;2023-08-12T10:59:52;24.20;99.90
20125;DHT22;10223;50.862;4.360;2023-08-12T11:02:26;24.00;99.90
20125;DHT22;10223;50.862;4.360;2023-08-12T11:04:54;24.10;99.90
20125;DHT22;10223;50.862;4.360;2023-08-12T11:07:27;24.00;99.90
20125;DHT22;10223;50.862;4.360;2023-08-12T11:09:58;23.90;99.90
20125;DHT22;10223;50.862;4.360;2023-08-12T11:12:30;24.10;99.90
20125;DHT22;10223;50.862;4.360;2023-08-12T11:14:58;24.40;99.90
20125;DHT22;10223;50.862;4.360;2023-08-12T11:17:35;24.40;99.90
20125;DHT22;10223;50.862;4.360;2023-08-12T11:20:04;24.70;99.90
20125;DHT22;10223;50.862;4.360;2023-08-12T11:22:33;24.70;99.90
20125;DHT22;10223;50.862;4.360;2023-08-12T11:25:02;24.90;99.90
20125;DHT22;10223;50.862;4.360;2023-08-12T11:27:36;25.10;99.90
20125;DHT22;10223;50.862;4.360;2023-08-12T11:30:05;24.90;99.90
20125;DHT22;10223;50.862;4.360;2023-08-12T11:32:33;24.70;99.90
20125;DHT22;10223;50.862;4.360;2023-08-12T11:35:00;24.70;99.90
20125;DHT22;10223;50.862;4.360;2023-08-12T11:37:29;24.70;99.90
20125;DHT22;10223;50.862;4.360;2023-08-12T11:39:56;24.50;99.90
20125;DHT22;10223;50.862;4.360;2023-08-12T11:42:23;24.60;99.90
20125;DHT22;10223;50.862;4.360;2023-08-12T11:44:50;24.10;99.90
20125;DHT22;10223;50.862;4.360;2023-08-12T11:47:17;24.10;99.90
20125;DHT22;10223;50.862;4.360;2023-08-12T11:49:45;23.90;99.90
20125;DHT22;10223;50.862;4.360;2023-08-12T11:52:12;23.90;99.90
20125;DHT22;10223;50.862;4.360;2023-08-12T11:54:40;24.20;99.90
20125;DHT22;10223;50.862;4.360;2023-08-12T11:57:07;24.30;99.90
20125;DHT22;10223;50.862;4.360;2023-08-12T11:59:34;24.60;99.90
20125;DHT22;10223;50.862;4.360;2023-08-12T12:02:02;24.70;99.90
20125;DHT22;10223;50.862;4.360;2023-08-12T12:04:30;25.10;99.90
20125;DHT22;10223;50.862;4.360;2023-08-12T12:06:59;25.40;99.90
20125;DHT22;10223;50.862;4.360;2023-08-12T12:09:31;25.50;99.90
20125;DHT22;10223;50.862;4.360;2023-08-12T12:11:59;25.30;99.90
20125;DHT22;10223;50.862;4.360;2023-08-12T12:14:28;25.40;99.90
20125;DHT22;10223;50.862;4.360;2023-08-12T12:16:55;25.60;99.90
20125;DHT22;10223;50.862;4.360;2023-08-12T12:19:23;25.30;99.90
20125;DHT22;10223;50.862;4.360;2023-08-12T12:21:51;25.10;99.90
20125;DHT22;10223;50.862;4.360;2023-08-12T12:24:20;24.90;99.90
20125;DHT22;10223;50.862;4.360;2023-08-12T12:26:47;25.10;99.90
20125;DHT22;10223;50.862;4.360;2023-08-12T12:29:14;25.30;99.90
20125;DHT22;10223;50.862;4.360;2023-08-12T12:31:41;25.60;99.90
20125;DHT22;10223;50.862;4.360;2023-08-12T12:34:09;25.30;99.90
20125;DHT22;10223;50.862;4.360;2023-08-12T12:36:37;25.40;99.90
20125;DHT22;10223;50.862;4.360;2023-08-12T12:39:04;24.90;99.90
20125;DHT22;10223;50.862;4.360;2023-08-12T12:41:33;25.00;99.90
20125;DHT22;10223;50.862;4.360;2023-08-12T12:44:00;25.20;99.90
20125;DHT22;10223;50.862;4.360;2023-08-12T12:46:27;25.30;99.90
20125;DHT22;10223;50.862;4.360;2023-08-12T12:48:54;25.30;99.90
20125;DHT22;10223;50.862;4.360;2023-08-12T12:51:21;25.20;99.90
20125;DHT22;10223;50.862;4.360;2023-08-12T12:53:48;25.40;99.90
20125;DHT22;10223;50.862;4.360;2023-08-12T12:56:15;25.10;99.90
20125;DHT22;10223;50.862;4.360;2023-08-12T12:58:43;25.40;99.90
20125;DHT22;10223;50.862;4.360;2023-08-12T13:01:10;25.50;99.90
20125;DHT22;10223;50.862;4.360;2023-08-12T13:03:37;25.40;99.90
20125;DHT22;10223;50.862;4.360;2023-08-12T13:06:03;25.80;99.90
20125;DHT22;10223;50.862;4.360;2023-08-12T13:08:30;25.80;99.90
20125;DHT22;10223;50.862;4.360;2023-08-12T13:10:57;25.80;99.90
20125;DHT22;10223;50.862;4.360;2023-08-12T13:13:24;26.00;99.90
20125;DHT22;10223;50.862;4.360;2023-08-12T13:15:53;26.00;99.90
20125;DHT22;10223;50.862;4.360;2023-08-12T13:18:20;25.70;99.90
20125;DHT22;10223;50.862;4.360;2023-08-12T13:20:46;25.70;99.90
20125;DHT22;10223;50.862;4.360;2023-08-12T13:23:14;25.40;99.90
20125;DHT22;10223;50.862;4.360;2023-08-12T13:25:41;25.40;99.90
20125;DHT22;10223;50.862;4.360;2023-08-12T13:28:08;25.50;99.90
20125;DHT22;10223;50.862;4.360;2023-08-12T13:30:35;25.70;99.90
20125;DHT22;10223;50.862;4.360;2023-08-12T13:33:04;26.30;99.90
20125;DHT22;10223;50.862;4.360;2023-08-12T13:35:31;26.50;99.90
20125;DHT22;10223;50.862;4.360;2023-08-12T13:37:58;26.20;99.90
20125;DHT22;10223;50.862;4.360;2023-08-12T13:40:25;26.30;99.90
20125;DHT22;10223;50.862;4.360;2023-08-12T13:42:52;26.90;99.90
20125;DHT22;10223;50.862;4.360;2023-08-12T13:45:19;27.80;99.90
20125;DHT22;10223;50.862;4.360;2023-08-12T13:47:46;28.20;99.90
20125;DHT22;10223;50.862;4.360;2023-08-12T13:50:14;27.90;99.90
20125;DHT22;10223;50.862;4.360;2023-08-12T13:52:41;27.10;99.90
20125;DHT22;10223;50.862;4.360;2023-08-12T13:55:08;27.50;99.90
20125;DHT22;10223;50.862;4.360;2023-08-12T13:57:35;28.30;99.90
20125;DHT22;10223;50.862;4.360;2023-08-12T14:00:03;28.90;99.90
20125;DHT22;10223;50.862;4.360;2023-08-12T14:02:35;29.50;99.90
20125;DHT22;10223;50.862;4.360;2023-08-12T14:05:02;30.40;99.90
20125;DHT22;10223;50.862;4.360;2023-08-12T14:07:30;29.90;99.90
20125;DHT22;10223;50.862;4.360;2023-08-12T14:09:58;29.90;99.90
20125;DHT22;10223;50.862;4.360;2023-08-12T14:12:25;30.30;99.90
20125;DHT22;10223;50.862;4.360;2023-08-12T14:14:52;30.00;99.90
20125;DHT22;10223;50.862;4.360;2023-08-12T14:17:21;31.00;99.90
20125;DHT22;10223;50.862;4.360;2023-08-12T14:19:49;31.70;99.90
20125;DHT22;10223;50.862;4.360;2023-08-12T14:22:17;32.00;99.90
20125;DHT22;10223;50.862;4.360;2023-08-12T14:24:45;31.60;99.90
20125;DHT22;10223;50.862;4.360;2023-08-12T14:27:13;32.00;99.90
20125;DHT22;10223;50.862;4.360;2023-08-12T14:29:41;31.50;99.90
20125;DHT22;10223;50.862;4.360;2023-08-12T14:32:08;30.50;99.90
20125;DHT22;10223;50.862;4.360;2023-08-12T14:34:35;29.50;99.90
20125;DHT22;10223;50.862;4.360;2023-08-12T14:37:02;28.50;99.90
20125;DHT22;10223;50.862;4.360;2023-08-12T14:39:29;27.70;99.90
20125;DHT22;10223;50.862;4.360;2023-08-12T14:41:58;28.10;99.90
20125;DHT22;10223;50.862;4.360;2023-08-12T14:44:24;28.40;99.90
20125;DHT22;10223;50.862;4.360;2023-08-12T14:46:51;28.70;99.90
20125;DHT22;10223;50.862;4.360;2023-08-12T14:49:18;28.80;99.90
20125;DHT22;10223;50.862;4.360;2023-08-12T14:51:46;29.50;99.90
20125;DHT22;10223;50.862;4.360;2023-08-12T14:54:13;30.40;99.90
20125;DHT22;10223;50.862;4.360;2023-08-12T14:56:39;32.20;99.90
20125;DHT22;10223;50.862;4.360;2023-08-12T14:59:08;31.10;99.90
20125;DHT22;10223;50.862;4.360;2023-08-12T15:01:35;30.20;99.90
20125;DHT22;10223;50.862;4.360;2023-08-12T15:04:02;28.90;99.90
20125;DHT22;10223;50.862;4.360;2023-08-12T15:06:28;27.80;99.90
20125;DHT22;10223;50.862;4.360;2023-08-12T15:08:55;27.10;99.90
20125;DHT22;10223;50.862;4.360;2023-08-12T15:11:22;28.60;99.90
20125;DHT22;10223;50.862;4.360;2023-08-12T15:13:50;29.60;99.90
20125;DHT22;10223;50.862;4.360;2023-08-12T15:16:19;30.60;99.90
20125;DHT22;10223;50.862;4.360;2023-08-12T15:18:45;31.10;99.90
20125;DHT22;10223;50.862;4.360;2023-08-12T15:21:13;31.10;99.90
20125;DHT22;10223;50.862;4.360;2023-08-12T15:23:41;32.20;99.90
20125;DHT22;10223;50.862;4.360;2023-08-12T15:26:08;31.10;99.90
20125;DHT22;10223;50.862;4.360;2023-08-12T15:28:37;29.70;99.90
20125;DHT22;10223;50.862;4.360;2023-08-12T15:31:04;31.10;99.90
20125;DHT22;10223;50.862;4.360;2023-08-12T15:33:32;31.30;99.90